createdAt,value
2019-05-16T00:02:48.102Z,100661.05
2019-05-16T00:05:54.622Z,100658.78
2019-05-16T00:08:59.797Z,100658.16
2019-05-16T00:12:05.639Z,100660.51
2019-05-16T00:15:09.509Z,100656.88
2019-05-16T00:18:13.221Z,100655.34
2019-05-16T00:21:18.094Z,100642.00
2019-05-16T00:24:21.893Z,100642.36
2019-05-16T00:27:27.900Z,100637.50
2019-05-16T00:30:31.043Z,100632.37
2019-05-16T00:33:34.688Z,100627.88
2019-05-16T00:36:38.416Z,100627.88
2019-05-16T00:39:41.956Z,100627.22
2019-05-16T00:42:48.870Z,100621.14
2019-05-16T00:45:51.093Z,100618.20
2019-05-16T00:48:54.912Z,100615.02
2019-05-16T00:51:58.667Z,100608.76
2019-05-16T00:55:02.530Z,100590.15
2019-05-16T00:58:08.813Z,100589.84
2019-05-16T01:01:12.485Z,100591.58
2019-05-16T01:04:18.175Z,100579.41
2019-05-16T01:07:21.945Z,100583.64
2019-05-16T01:10:25.657Z,100579.36
2019-05-16T01:13:29.467Z,100575.16
2019-05-16T01:16:33.440Z,100578.45
2019-05-16T01:19:37.973Z,100568.91
2019-05-16T01:22:41.882Z,100569.90
2019-05-16T01:25:45.474Z,100569.44
2019-05-16T01:28:49.282Z,100562.45
2019-05-16T01:31:52.888Z,100555.14
2019-05-16T01:34:58.737Z,100556.56
2019-05-16T01:38:02.086Z,100557.73
2019-05-16T01:41:05.860Z,100550.97
2019-05-16T01:44:09.518Z,100556.44
2019-05-16T01:47:13.285Z,100558.50
2019-05-16T01:50:18.104Z,100554.97
2019-05-16T01:53:22.033Z,100549.84
2019-05-16T01:56:28.012Z,100546.00
2019-05-16T01:59:31.209Z,100544.64
2019-05-16T02:02:34.935Z,100537.56
2019-05-16T02:05:39.362Z,100540.39
2019-05-16T02:08:43.025Z,100536.85
2019-05-16T02:11:48.147Z,100528.53
2019-05-16T02:14:51.950Z,100522.74
2019-05-16T02:17:55.604Z,100525.28
2019-05-16T02:21:01.311Z,100523.86
2019-05-16T02:24:04.815Z,100517.69
2019-05-16T02:27:09.585Z,100517.50
2019-05-16T02:30:13.580Z,100521.98
2019-05-16T02:33:17.183Z,100511.49
2019-05-16T02:36:21.847Z,100511.02
2019-05-16T02:39:25.660Z,100513.26
2019-05-16T02:42:30.997Z,100513.26
2019-05-16T02:45:35.237Z,100508.95
2019-05-16T02:48:41.032Z,100507.94
2019-05-16T02:51:44.389Z,100506.36
2019-05-16T02:54:51.538Z,100499.37
2019-05-16T02:57:53.503Z,100497.00
2019-05-16T03:00:57.133Z,100486.50
2019-05-16T03:04:01.703Z,100483.83
2019-05-16T03:07:05.880Z,100483.17
2019-05-16T03:10:11.084Z,100488.46
2019-05-16T03:13:17.835Z,100481.20
2019-05-16T03:16:23.104Z,100483.24
2019-05-16T03:19:31.132Z,100483.59
2019-05-16T03:22:34.950Z,100470.73
2019-05-16T03:25:41.545Z,100475.31
2019-05-16T03:28:43.937Z,100463.13
2019-05-16T03:31:47.603Z,100461.59
2019-05-16T03:34:54.650Z,100457.04
2019-05-16T03:38:01.489Z,100453.15
2019-05-16T03:41:02.170Z,100440.40
2019-05-16T03:44:06.038Z,100442.52
2019-05-16T03:47:11.215Z,100433.05
2019-05-16T03:50:15.534Z,100439.85
2019-05-16T03:53:21.280Z,100439.03
2019-05-16T03:56:24.831Z,100434.80
2019-05-16T03:59:31.222Z,100430.93
2019-05-16T04:02:34.009Z,100435.67
2019-05-16T04:05:41.182Z,100431.77
2019-05-16T04:08:43.110Z,100421.95
2019-05-16T04:11:46.768Z,100415.84
2019-05-16T04:14:51.256Z,100413.87
2019-05-16T04:17:55.174Z,100414.54
2019-05-16T04:21:01.052Z,100413.87
2019-05-16T04:24:04.334Z,100419.45
2019-05-16T04:27:11.744Z,100417.42
2019-05-16T04:30:13.571Z,100410.52
2019-05-16T04:33:17.285Z,100410.16
2019-05-16T04:36:21.498Z,100410.33
2019-05-16T04:39:25.513Z,100401.20
2019-05-16T04:42:31.042Z,100397.30
2019-05-16T04:45:34.586Z,100399.67
2019-05-16T04:48:41.449Z,100398.33
2019-05-16T04:51:43.729Z,100397.66
2019-05-16T04:54:47.451Z,100394.94
2019-05-16T04:57:51.378Z,100395.94
2019-05-16T05:00:54.909Z,100393.59
2019-05-16T05:04:09.119Z,100384.43
2019-05-16T05:07:04.028Z,100371.95
2019-05-16T05:10:10.955Z,100381.58
2019-05-16T05:13:13.246Z,100378.00
2019-05-16T05:16:16.943Z,100379.36
2019-05-16T05:19:20.557Z,100380.58
2019-05-16T05:22:24.231Z,100376.64
2019-05-16T05:25:27.825Z,100380.22
2019-05-16T05:28:31.551Z,100376.81
2019-05-16T05:31:35.728Z,100383.78
2019-05-16T05:34:39.917Z,100375.30
2019-05-16T05:37:50.672Z,100372.11
2019-05-16T05:40:55.350Z,100376.69
2019-05-16T05:43:59.891Z,100367.34
2019-05-16T05:47:03.684Z,100366.83
2019-05-16T05:50:07.963Z,100373.75
2019-05-16T05:53:11.670Z,100376.30
2019-05-16T05:56:15.394Z,100372.25
2019-05-16T05:59:20.099Z,100373.72
2019-05-16T06:02:24.150Z,100363.35
2019-05-16T06:05:30.427Z,100360.47
2019-05-16T06:08:33.227Z,100366.44
2019-05-16T06:11:37.116Z,100354.97
2019-05-16T06:14:41.825Z,100364.98
2019-05-16T06:17:45.930Z,100361.78
2019-05-16T06:20:51.181Z,100360.88
2019-05-16T06:23:55.472Z,100356.98
2019-05-16T06:27:00.910Z,100350.05
2019-05-16T06:30:08.054Z,100352.55
2019-05-16T06:33:11.694Z,100342.69
2019-05-16T06:36:15.336Z,100341.30
2019-05-16T06:39:19.956Z,100342.97
2019-05-16T06:42:23.719Z,100339.95
2019-05-16T06:45:27.374Z,100334.09
2019-05-16T06:48:31.185Z,100326.93
2019-05-16T06:51:34.951Z,100320.15
2019-05-16T06:54:40.706Z,100316.33
2019-05-16T06:57:44.151Z,100318.48
2019-05-16T07:00:51.683Z,100310.48
2019-05-16T07:03:53.208Z,100305.59
2019-05-16T07:07:02.007Z,100291.99
2019-05-16T07:10:04.658Z,100304.01
2019-05-16T07:13:10.220Z,100297.23
2019-05-16T07:16:13.234Z,100295.75
2019-05-16T07:19:16.902Z,100295.56
2019-05-16T07:22:20.690Z,100302.77
2019-05-16T07:25:24.357Z,100303.88
2019-05-16T07:28:30.058Z,100302.98
2019-05-16T07:31:33.515Z,100298.81
2019-05-16T07:34:37.387Z,100293.16
2019-05-16T07:37:40.963Z,100289.85
2019-05-16T07:40:44.631Z,100292.38
2019-05-16T07:43:50.536Z,100293.73
2019-05-16T07:46:53.789Z,100294.09
2019-05-16T07:49:59.472Z,100293.90
2019-05-16T07:53:02.801Z,100286.84
2019-05-16T07:56:06.485Z,100288.20
2019-05-16T07:59:10.509Z,100289.02
2019-05-16T08:02:14.230Z,100281.83
2019-05-16T08:05:20.774Z,100284.23
2019-05-16T08:08:24.500Z,100277.34
2019-05-16T08:11:34.549Z,100268.75
2019-05-16T08:14:40.782Z,100263.98
2019-05-16T08:17:44.578Z,100265.62
2019-05-16T08:20:52.190Z,100267.87
2019-05-16T08:23:53.849Z,100264.47
2019-05-16T08:27:00.993Z,100262.98
2019-05-16T08:30:02.875Z,100258.39
2019-05-16T08:33:06.544Z,100260.34
2019-05-16T08:39:15.573Z,100269.23
2019-05-16T08:42:20.914Z,100274.64
2019-05-16T08:45:24.850Z,100271.53
2019-05-16T08:48:31.424Z,100273.08
2019-05-16T08:51:33.871Z,100269.88
2019-05-16T08:54:37.855Z,100265.50
2019-05-16T08:57:41.819Z,100274.43
2019-05-16T09:00:45.826Z,100264.43
2019-05-16T09:03:52.209Z,100260.05
2019-05-16T09:06:54.794Z,100253.55
2019-05-16T09:10:00.259Z,100245.88
2019-05-16T09:13:03.743Z,100258.05
2019-05-16T09:16:07.910Z,100251.27
2019-05-16T09:18:30.424Z,100267.67
2019-05-16T09:19:11.623Z,100250.28
2019-05-16T09:22:17.952Z,100238.05
2019-05-16T09:25:20.630Z,100232.89
2019-05-16T09:28:24.265Z,100236.09
2019-05-16T09:31:27.805Z,100231.43
2019-05-16T09:34:31.587Z,100227.32
2019-05-16T09:37:37.593Z,100226.64
2019-05-16T09:40:40.972Z,100223.85
2019-05-16T09:43:48.267Z,100217.50
2019-05-16T09:46:49.979Z,100212.85
2019-05-16T09:49:53.599Z,100225.41
2019-05-16T09:52:57.492Z,100225.46
2019-05-16T09:56:01.031Z,100222.73
2019-05-16T09:59:06.965Z,100216.06
2019-05-16T10:02:10.272Z,100218.41
2019-05-16T10:05:16.907Z,100203.39
2019-05-16T10:08:20.416Z,100205.72
2019-05-16T10:11:30.188Z,100208.39
2019-05-16T10:14:29.804Z,100205.45
2019-05-16T10:17:36.782Z,100207.13
2019-05-16T10:20:39.379Z,100198.84
2019-05-16T10:23:43.075Z,100187.80
2019-05-16T10:26:53.455Z,100192.53
2019-05-16T10:29:52.251Z,100196.52
2019-05-16T10:32:57.542Z,100196.97
2019-05-16T10:36:01.556Z,100195.62
2019-05-16T10:39:07.505Z,100195.05
2019-05-16T10:42:24.933Z,100186.45
2019-05-16T10:45:17.213Z,100185.08
2019-05-16T10:48:20.881Z,100189.60
2019-05-16T10:51:26.749Z,100185.80
2019-05-16T10:54:29.912Z,100186.66
2019-05-16T10:57:33.632Z,100195.48
2019-05-16T11:01:05.129Z,100191.59
2019-05-16T11:03:42.525Z,100192.91
2019-05-16T11:06:46.650Z,100190.57
2019-05-16T11:09:58.263Z,100190.88
2019-05-16T11:12:59.428Z,100191.35
2019-05-16T11:16:01.119Z,100185.27
2019-05-16T11:19:17.962Z,100182.61
2019-05-16T11:22:10.120Z,100184.36
2019-05-16T11:25:24.186Z,100184.47
2019-05-16T11:28:19.571Z,100177.70
2019-05-16T11:31:23.411Z,100181.64
2019-05-16T11:34:27.084Z,100174.66
2019-05-16T11:37:30.713Z,100178.15
2019-05-16T11:40:34.470Z,100169.46
2019-05-16T11:43:38.170Z,100167.96
2019-05-16T11:46:42.026Z,100165.44
2019-05-16T11:49:47.600Z,100163.64
2019-05-16T11:52:50.925Z,100161.11
2019-05-16T11:55:59.972Z,100159.47
2019-05-16T11:58:59.873Z,100137.64
2019-05-16T12:02:03.541Z,100147.64
2019-05-16T12:05:07.278Z,100142.67
2019-05-16T12:08:10.991Z,100136.77
2019-05-16T12:11:14.553Z,100138.83
2019-05-16T12:14:18.135Z,100133.25
2019-05-16T12:17:21.708Z,100133.55
2019-05-16T12:20:27.372Z,100140.16
2019-05-16T12:23:30.585Z,100130.77
2019-05-16T12:26:34.323Z,100134.43
2019-05-16T12:29:38.678Z,100128.27
2019-05-16T12:32:42.244Z,100126.15
2019-05-16T12:35:47.444Z,100123.09
2019-05-16T12:38:51.194Z,100127.73
2019-05-16T12:41:59.032Z,100127.41
2019-05-16T12:45:00.288Z,100128.66
2019-05-16T12:48:06.634Z,100133.73
2019-05-16T12:51:09.562Z,100125.61
2019-05-16T12:54:13.144Z,100134.44
2019-05-16T12:57:18.241Z,100133.75
2019-05-16T13:00:22.325Z,100130.77
2019-05-16T13:03:27.686Z,100135.80
2019-05-16T13:06:31.600Z,100133.76
2019-05-16T13:09:37.056Z,100118.92
2019-05-16T13:12:40.625Z,100116.72
2019-05-16T13:15:44.206Z,100115.41
2019-05-16T13:18:47.815Z,100115.20
2019-05-16T13:21:51.453Z,100114.60
2019-05-16T13:24:57.439Z,100117.99
2019-05-16T13:28:00.400Z,100116.02
2019-05-16T13:31:03.956Z,100119.63
2019-05-16T13:34:07.778Z,100115.73
2019-05-16T13:37:11.438Z,100117.11
2019-05-16T13:40:17.016Z,100104.66
2019-05-16T13:43:20.716Z,100104.22
2019-05-16T13:46:27.994Z,100100.09
2019-05-16T13:49:31.558Z,100103.79
2019-05-16T13:52:36.572Z,100103.52
2019-05-16T13:55:40.215Z,100098.36
2019-05-16T13:58:46.769Z,100095.69
2019-05-16T14:01:49.358Z,100106.41
2019-05-16T14:04:53.031Z,100095.69
2019-05-16T14:07:57.271Z,100096.67
2019-05-16T14:11:02.217Z,100092.08
2019-05-16T14:14:09.057Z,100091.77
2019-05-16T14:17:14.545Z,100095.52
2019-05-16T14:20:18.730Z,100092.50
2019-05-16T14:23:22.628Z,100092.97
2019-05-16T14:26:26.283Z,100093.50
2019-05-16T14:29:30.085Z,100101.06
2019-05-16T14:32:40.770Z,100098.14
2019-05-16T14:35:41.339Z,100091.45
2019-05-16T14:38:47.785Z,100088.36
2019-05-16T14:41:53.315Z,100079.67
2019-05-16T14:45:06.762Z,100082.11
2019-05-16T14:48:03.824Z,100081.63
2019-05-16T14:51:07.379Z,100085.59
2019-05-16T14:54:11.085Z,100084.14
2019-05-16T14:57:56.702Z,100082.63
2019-05-16T15:00:51.349Z,100077.38
2019-05-16T15:03:56.535Z,100080.30
2019-05-16T15:07:00.211Z,100087.37
2019-05-16T15:10:07.359Z,100085.41
2019-05-16T15:13:10.865Z,100081.60
2019-05-16T15:16:17.377Z,100086.39
2019-05-16T15:19:20.972Z,100081.90
2019-05-16T15:22:27.158Z,100081.27
2019-05-16T15:25:29.829Z,100078.39
2019-05-16T15:28:33.425Z,100076.29
2019-05-16T15:31:39.596Z,100074.03
2019-05-16T15:34:47.662Z,100076.06
2019-05-16T15:37:50.782Z,100074.48
2019-05-16T15:41:00.082Z,100078.33
2019-05-16T15:44:01.659Z,100065.02
2019-05-16T15:47:08.043Z,100067.23
2019-05-16T15:50:12.841Z,100069.62
2019-05-16T15:53:17.666Z,100072.56
2019-05-16T15:56:21.483Z,100071.88
2019-05-16T15:59:27.250Z,100067.58
2019-05-16T16:02:30.404Z,100064.94
2019-05-16T16:05:37.487Z,100058.88
2019-05-16T16:08:46.729Z,100054.91
2019-05-16T16:11:51.448Z,100048.59
2019-05-16T16:14:57.278Z,100054.99
2019-05-16T16:18:00.895Z,100046.82
2019-05-16T16:21:07.248Z,100045.94
2019-05-16T16:24:19.037Z,100043.95
2019-05-16T16:27:21.274Z,100038.30
2019-05-16T16:30:27.661Z,100041.56
2019-05-16T16:33:30.873Z,100044.50
2019-05-16T16:36:36.624Z,100046.30
2019-05-16T16:39:39.987Z,100042.56
2019-05-16T16:42:47.506Z,100044.77
2019-05-16T16:46:04.362Z,100046.80
2019-05-16T16:49:01.649Z,100053.48
2019-05-16T16:52:09.026Z,100062.29
2019-05-16T16:55:13.993Z,100064.03
2019-05-16T16:58:20.796Z,100060.45
2019-05-16T17:01:27.079Z,100061.42
2019-05-16T17:04:29.822Z,100067.13
2019-05-16T17:07:33.612Z,100065.95
2019-05-16T17:10:38.188Z,100074.95
2019-05-16T17:13:41.882Z,100071.75
2019-05-16T17:17:11.320Z,100081.83
2019-05-16T17:20:15.599Z,100076.73
2019-05-16T17:23:19.374Z,100076.73
2019-05-16T17:26:30.658Z,100073.18
2019-05-16T17:29:47.398Z,100078.56
2019-05-16T17:32:52.821Z,100075.45
2019-05-16T17:36:00.779Z,100077.54
2019-05-16T17:39:05.710Z,100080.63
2019-05-16T17:42:09.356Z,100083.83
2019-05-16T17:45:13.465Z,100085.94
2019-05-16T17:48:17.756Z,100082.84
2019-05-16T17:51:22.764Z,100081.88
2019-05-16T17:54:26.834Z,100072.84
2019-05-16T17:57:30.594Z,100074.36
2019-05-16T18:00:34.281Z,100070.03
2019-05-16T18:03:38.001Z,100074.83
2019-05-16T18:06:41.884Z,100072.26
2019-05-16T18:09:45.594Z,100073.96
2019-05-16T18:12:49.336Z,100075.02
2019-05-16T18:15:52.876Z,100077.56
2019-05-16T18:18:57.502Z,100081.58
2019-05-16T18:22:01.405Z,100077.55
2019-05-16T18:25:08.470Z,100081.30
2019-05-16T18:28:12.165Z,100076.19
2019-05-16T18:31:20.502Z,100070.80
2019-05-16T18:34:24.220Z,100067.98
2019-05-16T18:37:57.668Z,100074.89
2019-05-16T18:41:27.254Z,100082.13
2019-05-16T18:44:31.405Z,100084.06
2019-05-16T18:47:41.335Z,100078.33
2019-05-16T18:50:44.663Z,100078.48
2019-05-16T18:53:49.520Z,100077.22
2019-05-16T18:56:57.826Z,100075.58
2019-05-16T19:00:03.031Z,100077.75
2019-05-16T19:03:08.766Z,100084.01
2019-05-16T19:06:12.451Z,100081.23
2019-05-16T19:09:17.609Z,100087.12
2019-05-16T19:12:21.440Z,100083.52
2019-05-16T19:15:26.709Z,100083.28
2019-05-16T19:18:31.654Z,100088.07
2019-05-16T19:21:36.835Z,100089.03
2019-05-16T19:24:42.669Z,100098.05
2019-05-16T19:27:46.561Z,100086.44
2019-05-16T19:30:57.864Z,100091.64
2019-05-16T19:34:04.113Z,100095.85
2019-05-16T19:37:09.990Z,100088.42
2019-05-16T19:40:17.185Z,100093.66
2019-05-16T19:43:20.526Z,100101.23
2019-05-16T19:46:32.979Z,100105.70
2019-05-16T19:49:38.267Z,100102.86
2019-05-16T19:52:41.885Z,100101.30
2019-05-16T19:55:47.048Z,100097.61
2019-05-16T19:59:03.340Z,100094.43
2019-05-16T20:02:08.624Z,100097.23
2019-05-16T20:05:17.076Z,100093.73
2019-05-16T20:08:20.801Z,100076.02
2019-05-16T20:11:24.362Z,100091.71
2019-05-16T20:14:29.593Z,100091.72
2019-05-16T20:17:40.481Z,100088.20
2019-05-16T20:20:41.794Z,100089.75
2019-05-16T20:23:47.782Z,100087.11
2019-05-16T20:26:51.396Z,100081.30
2019-05-16T20:30:01.532Z,100084.77
2019-05-16T20:33:09.482Z,100081.08
2019-05-16T20:36:17.330Z,100080.25
2019-05-16T20:39:21.267Z,100071.34
2019-05-16T20:42:33.443Z,100078.13
2019-05-16T20:45:39.352Z,100078.20
2019-05-16T20:48:43.785Z,100080.58
2019-05-16T20:51:49.993Z,100079.48
2019-05-16T20:54:52.929Z,100072.75
2019-05-16T20:57:57.514Z,100072.55
2019-05-16T21:01:01.713Z,100075.13
2019-05-16T21:04:07.793Z,100070.13
2019-05-16T21:07:26.962Z,100066.61
2019-05-16T21:10:34.157Z,100066.73
2019-05-16T21:13:37.863Z,100071.77
2019-05-16T21:16:41.592Z,100056.05
2019-05-16T21:19:48.313Z,100058.13
2019-05-16T21:22:52.283Z,100052.52
2019-05-16T21:25:57.173Z,100055.27
2019-05-16T21:29:00.929Z,100051.41
2019-05-16T21:32:04.695Z,100047.94
2019-05-16T21:35:08.856Z,100053.00
2019-05-16T21:38:16.494Z,100051.48
2019-05-16T21:41:20.552Z,100054.08
2019-05-16T21:44:26.004Z,100043.79
2019-05-16T21:47:31.443Z,100043.09
2019-05-16T21:50:36.801Z,100041.13
2019-05-16T21:53:40.543Z,100043.25
2019-05-16T21:56:46.637Z,100044.78
2019-05-16T21:59:51.438Z,100043.89
2019-05-16T22:03:02.639Z,100051.96
2019-05-16T22:06:16.620Z,100048.79
2019-05-16T22:09:16.493Z,100045.96
2019-05-16T22:12:23.463Z,100037.80
2019-05-16T22:15:27.232Z,100041.95
2019-05-16T22:18:30.761Z,100049.44
2019-05-16T22:21:34.487Z,100049.44
2019-05-16T22:24:46.189Z,100048.09
2019-05-16T22:27:48.864Z,100045.56
2019-05-16T22:30:53.225Z,100043.98
2019-05-16T22:33:58.422Z,100046.75
2019-05-16T22:37:06.520Z,100052.27
2019-05-16T22:40:10.323Z,100051.11
2019-05-16T22:43:17.410Z,100047.23
2019-05-16T22:46:21.265Z,100044.14
2019-05-16T22:49:27.491Z,100041.59
2019-05-16T22:52:32.994Z,100045.13
2019-05-16T22:55:39.442Z,100045.50
2019-05-16T22:58:44.330Z,100047.34
2019-05-16T23:01:49.709Z,100046.48
2019-05-16T23:04:58.599Z,100032.55
2019-05-16T23:08:05.913Z,100038.34
2019-05-16T23:11:07.499Z,100034.27
2019-05-16T23:14:14.077Z,100033.97
2019-05-16T23:17:21.939Z,100029.72
2019-05-16T23:20:27.779Z,100035.52
2019-05-16T23:23:30.964Z,100026.81
2019-05-16T23:26:36.685Z,100026.77
2019-05-16T23:29:40.118Z,100020.25
2019-05-16T23:32:43.810Z,100019.54
2019-05-16T23:35:47.579Z,100015.66
2019-05-16T23:38:51.549Z,100011.89
2019-05-16T23:41:56.911Z,100014.53
2019-05-16T23:45:00.793Z,100013.74
2019-05-16T23:48:09.503Z,100002.59
2019-05-16T23:51:10.427Z,100003.80
2019-05-16T23:54:14.164Z,99999.13
2019-05-16T23:57:19.894Z,99994.61
